Time;durP1;ratioP1;P1;durP2;ratioP2;P2;SDS_P1;SDS_P2;PMS_P1;PMS_P2;Temp;Humidity;BMP_temperature;BMP_pressure;BME280_temperature;BME280_humidity;BME280_pressure;Samples;Min_cycle;Max_cycle;Signal;HPM_P1;HPM_P2
2022/07/06 00:01:46;;;;;;;5.68;2.50;;;26.80;98.80;;;;;;4990392;28;20497;-74
2022/07/06 00:04:12;;;;;;;4.93;2.25;;;26.70;98.90;;;;;;4990803;28;20448;-74
2022/07/06 00:06:38;;;;;;;4.60;1.88;;;26.80;99.00;;;;;;4992675;28;20018;-74
2022/07/06 00:09:05;;;;;;;9.43;2.47;;;26.70;99.10;;;;;;4992550;28;20023;-74
2022/07/06 00:11:31;;;;;;;3.90;2.17;;;26.70;99.20;;;;;;4992271;28;20405;-74
2022/07/06 00:13:57;;;;;;;3.45;2.30;;;26.60;99.40;;;;;;4992691;28;20022;-74
2022/07/06 00:16:23;;;;;;;3.05;2.30;;;26.60;99.20;;;;;;4991434;28;20033;-74
2022/07/06 00:18:49;;;;;;;2.03;1.77;;;26.60;99.30;;;;;;4991320;28;20077;-74
2022/07/06 00:21:15;;;;;;;1.90;1.80;;;26.60;99.20;;;;;;4990860;28;20022;-74
2022/07/06 00:23:41;;;;;;;6.05;2.03;;;26.60;99.30;;;;;;4991303;28;20133;-74
2022/07/06 00:26:07;;;;;;;2.40;2.08;;;26.70;99.90;;;;;;4991764;28;20025;-74
2022/07/06 00:28:32;;;;;;;8.63;1.88;;;26.60;99.90;;;;;;4992661;28;20027;-73
2022/07/06 00:30:58;;;;;;;2.83;2.38;;;26.50;99.90;;;;;;4993509;28;20030;-73
2022/07/06 00:33:24;;;;;;;2.10;1.90;;;26.50;99.90;;;;;;4983510;28;20022;-73
2022/07/06 00:35:50;;;;;;;2.22;2.00;;;26.30;99.90;;;;;;4991937;28;20538;-73
2022/07/06 00:38:16;;;;;;;3.50;2.22;;;26.30;99.90;;;;;;4991951;28;20023;-74
2022/07/06 00:40:42;;;;;;;4.53;2.30;;;26.20;99.90;;;;;;4994616;28;20029;-73
2022/07/06 00:43:07;;;;;;;2.47;2.00;;;26.20;99.90;;;;;;4990341;28;20109;-73
2022/07/06 00:45:33;;;;;;;3.63;2.20;;;26.20;99.90;;;;;;4991955;28;20060;-73
2022/07/06 00:47:59;;;;;;;2.00;1.90;;;26.20;99.90;;;;;;4991734;28;20434;-73
2022/07/06 00:50:25;;;;;;;2.10;1.92;;;26.20;99.90;;;;;;4988242;28;20037;-73
2022/07/06 00:53:02;;;;;;;3.63;2.10;;;26.10;99.90;;;;;;4992429;28;20022;-74
2022/07/06 00:55:30;;;;;;;2.50;2.25;;;26.10;99.90;;;;;;4990853;28;20033;-73
2022/07/06 00:57:56;;;;;;;2.00;1.80;;;26.10;99.90;;;;;;4992523;28;20023;-73
2022/07/06 01:00:24;;;;;;;2.85;1.85;;;26.10;99.90;;;;;;4990682;28;20097;-73
2022/07/06 01:02:51;;;;;;;3.03;2.08;;;26.10;99.90;;;;;;4990864;28;20034;-73
2022/07/06 01:05:17;;;;;;;2.38;1.60;;;26.10;99.90;;;;;;4990701;28;20030;-73
2022/07/06 01:07:46;;;;;;;6.85;2.25;;;26.00;99.90;;;;;;4992294;28;20026;-73
2022/07/06 01:10:13;;;;;;;2.08;1.95;;;26.00;99.90;;;;;;4989688;28;20382;-73
2022/07/06 01:12:41;;;;;;;5.65;2.25;;;25.90;99.90;;;;;;4990636;28;20098;-73
2022/07/06 01:15:10;;;;;;;6.32;2.15;;;25.90;99.90;;;;;;4991330;28;20026;-73
2022/07/06 01:17:38;;;;;;;2.40;1.90;;;25.70;99.90;;;;;;4988118;28;20045;-74
2022/07/06 01:20:08;;;;;;;2.25;2.03;;;25.50;99.90;;;;;;4991591;28;20109;-74
2022/07/06 01:22:34;;;;;;;4.63;2.13;;;25.40;99.90;;;;;;4989855;28;20029;-74
2022/07/06 01:24:59;;;;;;;3.47;1.98;;;25.40;99.90;;;;;;4990905;28;20042;-74
2022/07/06 01:27:25;;;;;;;3.90;2.13;;;25.40;99.90;;;;;;4990982;28;20026;-74
2022/07/06 01:29:51;;;;;;;2.00;1.80;;;25.30;99.90;;;;;;4989933;28;20042;-73
2022/07/06 01:32:16;;;;;;;5.00;1.90;;;25.30;99.90;;;;;;4992240;28;20081;-73
2022/07/06 01:34:42;;;;;;;3.03;2.22;;;25.20;99.90;;;;;;4989939;28;20129;-73
2022/07/06 01:37:08;;;;;;;4.00;2.08;;;25.30;99.90;;;;;;4990835;28;20029;-73
2022/07/06 01:39:33;;;;;;;2.13;2.03;;;25.30;99.90;;;;;;4991299;28;20437;-73
2022/07/06 01:41:59;;;;;;;2.60;1.77;;;25.30;99.90;;;;;;4992133;28;20033;-73
2022/07/06 01:44:25;;;;;;;3.42;1.95;;;25.30;99.90;;;;;;4994052;28;20397;-74
2022/07/06 01:46:51;;;;;;;2.10;1.88;;;25.20;99.90;;;;;;4994888;28;20019;-74
2022/07/06 01:49:16;;;;;;;4.40;2.10;;;25.20;99.90;;;;;;4995046;28;20189;-73
2022/07/06 01:51:42;;;;;;;5.18;1.80;;;25.30;99.90;;;;;;4994052;28;20027;-73
2022/07/06 01:54:08;;;;;;;1.88;1.77;;;25.30;99.90;;;;;;4994211;28;20025;-74
2022/07/06 01:56:33;;;;;;;3.00;2.03;;;25.40;99.90;;;;;;4995453;28;20037;-73
2022/07/06 01:58:59;;;;;;;2.17;1.80;;;25.40;99.90;;;;;;4994529;28;20029;-73
2022/07/06 02:01:25;;;;;;;2.35;1.90;;;25.40;99.90;;;;;;4997700;28;20667;-73
2022/07/06 02:03:50;;;;;;;2.58;1.67;;;25.40;99.90;;;;;;4993796;28;20524;-73
2022/07/06 02:06:16;;;;;;;3.38;2.25;;;25.40;99.90;;;;;;4993771;28;20031;-73
2022/07/06 02:08:42;;;;;;;3.03;2.10;;;25.50;99.90;;;;;;4993636;28;20033;-73
2022/07/06 02:11:09;;;;;;;2.67;1.90;;;25.50;99.90;;;;;;4988969;28;20063;-73
2022/07/06 02:13:35;;;;;;;5.72;2.08;;;25.50;99.90;;;;;;4994455;28;20117;-73
2022/07/06 02:16:02;;;;;;;3.65;2.05;;;25.50;99.90;;;;;;4993405;28;20027;-73
2022/07/06 02:18:28;;;;;;;3.17;2.20;;;25.50;99.90;;;;;;4995244;28;20018;-73
2022/07/06 02:20:53;;;;;;;2.33;1.85;;;25.50;99.90;;;;;;4993893;28;20033;-74
2022/07/06 02:23:19;;;;;;;2.53;2.20;;;25.50;99.90;;;;;;4994988;28;20062;-73
2022/07/06 02:25:45;;;;;;;4.35;1.98;;;25.50;99.90;;;;;;4993562;28;20026;-73
2022/07/06 02:28:11;;;;;;;4.45;2.20;;;25.60;99.90;;;;;;4995078;28;20018;-73
2022/07/06 02:30:36;;;;;;;1.77;1.67;;;25.50;99.90;;;;;;4997359;28;20125;-73
2022/07/06 02:33:02;;;;;;;3.90;2.30;;;25.50;99.90;;;;;;4992922;28;20033;-73
2022/07/06 02:35:28;;;;;;;11.55;2.80;;;25.50;99.90;;;;;;4993056;28;20061;-73
2022/07/06 02:37:54;;;;;;;4.72;1.95;;;25.50;99.90;;;;;;4993520;28;20042;-73
2022/07/06 02:40:20;;;;;;;3.97;2.28;;;25.50;99.90;;;;;;4994902;28;20035;-73
2022/07/06 02:42:45;;;;;;;2.35;1.90;;;25.60;99.90;;;;;;4995920;28;20030;-73
2022/07/06 02:45:11;;;;;;;4.03;2.22;;;25.60;99.90;;;;;;4994186;28;20038;-73
2022/07/06 02:47:37;;;;;;;5.78;2.40;;;25.60;99.90;;;;;;4992958;28;20029;-73
2022/07/06 02:50:04;;;;;;;2.85;2.00;;;25.50;99.90;;;;;;4993335;28;20026;-73
2022/07/06 02:52:30;;;;;;;4.95;2.03;;;25.50;99.90;;;;;;4993321;28;20023;-73
2022/07/06 02:54:55;;;;;;;2.28;2.13;;;25.50;99.90;;;;;;4992829;28;20500;-73
2022/07/06 02:57:21;;;;;;;4.45;2.17;;;25.40;99.90;;;;;;4993295;28;20022;-73
2022/07/06 02:59:49;;;;;;;2.95;1.83;;;25.40;99.90;;;;;;4992170;28;20034;-73
2022/07/06 03:02:16;;;;;;;1.90;1.80;;;25.40;99.90;;;;;;4992752;28;20402;-73
2022/07/06 03:04:42;;;;;;;2.78;2.10;;;25.40;99.90;;;;;;4983999;28;20034;-73
2022/07/06 03:07:07;;;;;;;3.20;2.10;;;25.40;99.90;;;;;;4992936;28;20513;-73
2022/07/06 03:09:33;;;;;;;4.32;2.10;;;25.40;99.90;;;;;;4993378;28;20034;-74
2022/07/06 03:11:59;;;;;;;4.95;2.20;;;25.30;99.90;;;;;;4995281;28;20014;-73
2022/07/06 03:14:25;;;;;;;3.03;2.10;;;25.30;99.90;;;;;;4992795;28;20519;-73
2022/07/06 03:16:51;;;;;;;3.17;2.22;;;25.30;99.90;;;;;;4991784;28;20117;-73
2022/07/06 03:19:17;;;;;;;3.20;2.03;;;25.30;99.90;;;;;;4992712;28;20560;-73
2022/07/06 03:21:43;;;;;;;3.72;1.85;;;25.30;99.90;;;;;;4993034;28;20022;-73
2022/07/06 03:24:08;;;;;;;7.10;2.00;;;25.20;99.90;;;;;;4993541;28;20060;-73
2022/07/06 03:26:34;;;;;;;3.97;2.08;;;25.20;99.90;;;;;;4992790;28;20015;-73
2022/07/06 03:29:00;;;;;;;1.88;1.77;;;25.20;99.90;;;;;;4991181;28;20556;-73
2022/07/06 03:31:26;;;;;;;3.53;2.03;;;25.20;99.90;;;;;;4996428;28;20030;-73
2022/07/06 03:33:52;;;;;;;2.80;1.90;;;25.10;99.90;;;;;;4993059;28;20142;-73
2022/07/06 03:36:18;;;;;;;4.75;2.13;;;25.10;99.90;;;;;;4993635;28;20027;-73
2022/07/06 03:38:43;;;;;;;1.98;1.85;;;25.10;99.90;;;;;;4991564;28;20355;-73
2022/07/06 03:41:09;;;;;;;3.72;2.17;;;25.00;99.90;;;;;;4995946;28;20532;-73
2022/07/06 03:43:35;;;;;;;2.83;2.15;;;25.10;99.90;;;;;;4991742;28;20540;-73
2022/07/06 03:46:01;;;;;;;4.38;1.70;;;25.10;99.90;;;;;;4993259;28;20443;-73
2022/07/06 03:48:26;;;;;;;3.03;2.00;;;25.10;99.90;;;;;;4993327;28;20565;-73
2022/07/06 03:50:52;;;;;;;3.92;1.95;;;25.10;99.90;;;;;;4992408;28;20042;-73
2022/07/06 03:53:18;;;;;;;4.70;2.10;;;25.10;99.90;;;;;;4993445;28;20018;-73
2022/07/06 03:56:27;;;;;;;3.30;1.92;;;25.10;99.90;;;;;;4991397;28;20363;-73
2022/07/06 03:58:30;;;;;;;2.15;1.80;;;25.10;99.90;;;;;;4989723;28;20062;-73
2022/07/06 04:00:55;;;;;;;2.85;1.80;;;25.10;99.90;;;;;;4993722;28;20084;-73
2022/07/06 04:03:21;;;;;;;4.40;1.90;;;25.10;99.90;;;;;;4993316;28;20620;-73
2022/07/06 04:05:47;;;;;;;1.83;1.73;;;25.10;99.90;;;;;;4990168;28;20034;-73
2022/07/06 04:08:12;;;;;;;2.20;2.00;;;25.10;99.90;;;;;;4991748;28;20389;-73
2022/07/06 04:10:38;;;;;;;3.35;1.83;;;25.00;99.90;;;;;;4991891;28;20500;-73
2022/07/06 04:13:04;;;;;;;2.38;1.90;;;25.00;99.90;;;;;;4992529;28;20508;-73
2022/07/06 04:15:29;;;;;;;1.95;1.67;;;25.00;99.90;;;;;;4991272;28;20038;-73
2022/07/06 04:17:55;;;;;;;2.22;1.77;;;25.00;99.90;;;;;;4992375;28;20021;-73
2022/07/06 04:20:22;;;;;;;2.25;2.00;;;25.00;99.90;;;;;;4991157;28;20030;-73
2022/07/06 04:22:49;;;;;;;1.75;1.40;;;25.10;99.90;;;;;;4992277;28;20027;-73
2022/07/06 04:25:15;;;;;;;3.90;2.05;;;25.10;99.90;;;;;;4990662;28;20628;-73
2022/07/06 04:27:41;;;;;;;2.35;1.80;;;25.10;99.90;;;;;;4991724;28;20130;-73
2022/07/06 04:30:08;;;;;;;2.30;1.90;;;25.20;99.90;;;;;;4991801;28;20026;-73
2022/07/06 04:32:34;;;;;;;2.10;1.90;;;25.20;99.90;;;;;;4995599;28;20023;-73
2022/07/06 04:35:00;;;;;;;2.50;2.00;;;25.20;99.90;;;;;;4992168;28;20077;-71
2022/07/06 04:37:26;;;;;;;2.35;2.10;;;25.10;99.90;;;;;;4992898;28;20540;-71
2022/07/06 04:39:51;;;;;;;3.22;2.55;;;25.10;99.90;;;;;;4991652;28;20038;-73
2022/07/06 04:42:17;;;;;;;3.47;2.17;;;25.00;99.90;;;;;;4995572;28;20519;-73
2022/07/06 04:44:43;;;;;;;32.50;2.92;;;25.00;99.90;;;;;;4991988;28;20061;-73
2022/07/06 04:47:09;;;;;;;3.13;2.03;;;24.90;99.90;;;;;;4992451;28;20025;-73
2022/07/06 04:49:34;;;;;;;3.65;1.95;;;25.00;99.90;;;;;;4992137;28;20034;-73
2022/07/06 04:52:00;;;;;;;4.07;1.90;;;24.90;99.90;;;;;;4992075;28;20030;-73
2022/07/06 04:54:26;;;;;;;8.70;2.20;;;24.90;99.90;;;;;;4991867;28;20034;-73
2022/07/06 04:56:51;;;;;;;7.68;1.70;;;24.90;99.90;;;;;;4991997;28;20022;-73
2022/07/06 04:59:17;;;;;;;2.22;1.75;;;24.80;99.90;;;;;;4991096;28;20070;-73
2022/07/06 05:01:43;;;;;;;3.42;1.92;;;24.80;99.90;;;;;;4994705;28;20054;-73
2022/07/06 05:04:09;;;;;;;3.85;1.40;;;24.80;99.90;;;;;;4991628;28;20112;-73
2022/07/06 05:06:35;;;;;;;3.90;1.70;;;24.90;99.90;;;;;;4991859;28;20026;-73
2022/07/06 05:09:01;;;;;;;2.33;1.85;;;24.90;99.90;;;;;;4991775;28;20026;-73
2022/07/06 05:11:27;;;;;;;2.88;1.77;;;24.90;99.90;;;;;;4993515;28;20034;-73
2022/07/06 05:13:54;;;;;;;2.63;1.40;;;24.90;99.90;;;;;;4991551;28;20084;-74
2022/07/06 05:16:20;;;;;;;4.20;1.55;;;24.90;99.90;;;;;;4991730;28;20026;-74
2022/07/06 05:18:46;;;;;;;3.88;1.70;;;25.00;99.90;;;;;;4990966;28;20042;-73
2022/07/06 05:21:11;;;;;;;2.97;1.50;;;25.00;99.90;;;;;;4991686;28;20049;-74
2022/07/06 05:23:37;;;;;;;5.15;1.70;;;25.10;99.90;;;;;;4991514;28;20069;-73
2022/07/06 05:26:03;;;;;;;6.60;2.10;;;25.20;99.90;;;;;;4991492;28;20033;-73
2022/07/06 05:28:29;;;;;;;10.43;2.10;;;25.30;99.90;;;;;;4991944;28;20025;-74
2022/07/06 05:30:54;;;;;;;3.42;1.73;;;25.30;99.90;;;;;;4993204;28;20022;-74
2022/07/06 05:33:20;;;;;;;5.10;1.83;;;25.40;99.90;;;;;;4991968;28;20487;-74
2022/07/06 05:35:46;;;;;;;3.35;1.80;;;25.40;99.90;;;;;;4989825;28;20084;-74
2022/07/06 05:38:12;;;;;;;2.45;1.60;;;25.60;99.90;;;;;;4992008;28;20023;-73
2022/07/06 05:40:38;;;;;;;3.63;1.55;;;25.70;99.90;;;;;;4993810;28;20037;-73
2022/07/06 05:43:04;;;;;;;2.88;1.52;;;25.80;99.70;;;;;;4991765;28;20481;-73
2022/07/06 05:45:29;;;;;;;2.70;1.75;;;25.90;98.10;;;;;;4989723;28;20121;-73
2022/07/06 05:50:39;;;;;;;4.05;1.88;;;26.10;99.40;;;;;;4989870;28;20045;-72
2022/07/06 05:53:06;;;;;;;2.80;1.63;;;26.10;99.60;;;;;;4985566;28;20022;-73
2022/07/06 05:55:32;;;;;;;6.25;1.55;;;26.20;98.50;;;;;;4989346;28;20026;-73
2022/07/06 05:57:57;;;;;;;2.45;1.70;;;26.20;97.90;;;;;;4991703;28;20026;-72
2022/07/06 06:00:24;;;;;;;2.47;1.90;;;26.20;96.20;;;;;;4991937;28;20034;-72
2022/07/06 06:02:51;;;;;;;1.88;1.52;;;26.20;95.80;;;;;;4993112;28;20038;-73
2022/07/06 06:05:17;;;;;;;5.22;1.50;;;26.30;96.10;;;;;;4989597;28;20510;-73
2022/07/06 06:07:43;;;;;;;3.92;1.85;;;26.30;96.00;;;;;;4991641;28;20504;-74
2022/07/06 06:10:12;;;;;;;2.67;1.88;;;26.30;97.00;;;;;;4990860;28;20541;-74
2022/07/06 06:12:38;;;;;;;10.10;2.15;;;26.30;97.10;;;;;;4994523;28;20138;-74
2022/07/06 06:15:05;;;;;;;2.75;1.80;;;26.30;98.20;;;;;;4989559;28;20053;-75
2022/07/06 06:17:31;;;;;;;3.33;1.83;;;26.40;97.50;;;;;;4991567;28;20018;-76
2022/07/06 06:19:57;;;;;;;2.97;1.40;;;26.40;97.80;;;;;;4991024;28;20026;-75
2022/07/06 06:22:23;;;;;;;6.90;2.03;;;26.50;97.60;;;;;;4991430;28;20022;-75
2022/07/06 06:24:49;;;;;;;2.20;1.77;;;26.60;96.80;;;;;;4990589;28;20122;-74
2022/07/06 06:27:15;;;;;;;5.15;1.50;;;26.60;96.80;;;;;;4991487;28;20058;-75
2022/07/06 06:29:41;;;;;;;5.80;1.77;;;26.70;94.00;;;;;;4991937;28;20034;-75
2022/07/06 06:32:07;;;;;;;2.30;1.20;;;26.80;95.40;;;;;;4995163;28;20029;-75
2022/07/06 06:34:33;;;;;;;3.08;1.50;;;26.80;93.10;;;;;;4993714;28;20031;-75
2022/07/06 06:36:59;;;;;;;6.20;1.50;;;27.00;92.80;;;;;;4993429;28;20397;-75
2022/07/06 06:39:25;;;;;;;2.55;1.45;;;27.00;93.20;;;;;;4994626;28;20026;-75
2022/07/06 06:41:51;;;;;;;7.45;1.77;;;27.10;92.10;;;;;;4997380;28;20085;-75
2022/07/06 06:44:17;;;;;;;2.35;1.77;;;27.20;92.10;;;;;;4994339;28;20038;-75
2022/07/06 06:46:43;;;;;;;3.15;1.55;;;27.20;93.60;;;;;;4993595;28;20042;-76
2022/07/06 06:49:09;;;;;;;2.47;1.30;;;27.30;92.50;;;;;;4993028;28;20049;-74
2022/07/06 06:51:37;;;;;;;1.70;1.30;;;27.30;91.30;;;;;;4991286;28;20023;-86
2022/07/06 06:54:03;;;;;;;3.78;1.40;;;27.40;91.30;;;;;;4992481;28;20029;-75
2022/07/06 06:56:29;;;;;;;6.47;1.77;;;27.50;90.70;;;;;;4992609;28;20018;-76
2022/07/06 06:58:54;;;;;;;3.22;1.27;;;27.60;90.70;;;;;;4992741;28;20607;-75
2022/07/06 07:01:20;;;;;;;2.70;1.40;;;27.60;88.60;;;;;;4995378;28;20050;-75
2022/07/06 07:03:46;;;;;;;3.00;1.40;;;27.70;90.10;;;;;;4993167;28;20022;-75
2022/07/06 07:06:12;;;;;;;1.60;1.20;;;27.80;90.30;;;;;;4993852;28;20041;-73
2022/07/06 07:08:37;;;;;;;2.90;1.50;;;27.90;87.10;;;;;;4991745;28;20651;-72
2022/07/06 07:11:03;;;;;;;1.20;1.10;;;27.90;85.50;;;;;;4994526;28;20397;-74
2022/07/06 07:13:29;;;;;;;2.30;1.35;;;28.00;84.70;;;;;;4990982;28;20030;-72
2022/07/06 07:15:55;;;;;;;2.35;1.30;;;28.10;84.90;;;;;;4991970;28;20030;-72
2022/07/06 07:18:20;;;;;;;1.98;1.17;;;28.10;83.90;;;;;;4991512;28;20564;-73
2022/07/06 07:20:46;;;;;;;2.10;1.50;;;28.20;83.70;;;;;;4991664;28;20026;-72
2022/07/06 07:23:12;;;;;;;2.17;1.23;;;28.20;82.80;;;;;;4991850;28;20030;-72
2022/07/06 07:25:39;;;;;;;2.38;1.25;;;28.20;83.50;;;;;;4991625;28;20043;-72
2022/07/06 07:28:05;;;;;;;2.25;1.42;;;28.30;83.10;;;;;;4992624;28;20113;-72
2022/07/06 07:30:31;;;;;;;1.48;1.33;;;28.30;82.60;;;;;;4989783;28;20525;-72
2022/07/06 07:32:56;;;;;;;1.25;1.15;;;28.30;81.40;;;;;;4984159;28;20023;-73
2022/07/06 07:35:23;;;;;;;2.22;1.17;;;28.40;82.20;;;;;;4981250;28;20034;-72
2022/07/06 07:37:48;;;;;;;1.88;1.38;;;28.40;83.20;;;;;;4993563;28;20092;-72
2022/07/06 07:40:14;;;;;;;1.60;1.15;;;28.50;80.30;;;;;;4990600;28;20030;-72
2022/07/06 07:42:40;;;;;;;4.43;1.40;;;28.60;80.20;;;;;;4993893;28;20029;-73
2022/07/06 07:45:07;;;;;;;2.95;1.50;;;28.60;81.30;;;;;;4991512;28;20072;-72
2022/07/06 07:47:34;;;;;;;2.83;1.77;;;28.60;81.40;;;;;;4992113;28;20125;-73
2022/07/06 07:49:59;;;;;;;4.07;1.27;;;28.70;80.50;;;;;;4991062;28;20030;-74
2022/07/06 07:52:25;;;;;;;2.78;1.42;;;28.70;80.10;;;;;;4993505;28;20032;-72
2022/07/06 07:54:51;;;;;;;1.55;1.20;;;28.80;80.20;;;;;;4992436;28;20397;-71
2022/07/06 07:57:17;;;;;;;1.40;1.08;;;28.80;79.70;;;;;;4993517;28;20385;-72
2022/07/06 07:59:42;;;;;;;4.70;1.60;;;28.90;79.30;;;;;;4992009;28;20034;-73
2022/07/06 08:02:08;;;;;;;2.97;1.50;;;29.00;79.30;;;;;;4994723;28;20141;-74
2022/07/06 08:04:34;;;;;;;3.17;1.67;;;29.10;79.80;;;;;;4992688;28;20042;-73
2022/07/06 08:07:00;;;;;;;3.40;1.27;;;29.10;79.30;;;;;;4992836;28;20023;-72
2022/07/06 08:09:26;;;;;;;2.70;1.20;;;29.10;77.10;;;;;;4990545;28;20030;-72
2022/07/06 08:11:52;;;;;;;2.45;1.38;;;29.10;76.30;;;;;;4995438;28;20022;-72
2022/07/06 08:14:17;;;;;;;1.90;1.10;;;29.10;75.40;;;;;;4991595;28;20413;-72
2022/07/06 08:16:43;;;;;;;3.08;1.45;;;29.20;75.30;;;;;;4991521;28;20034;-72
2022/07/06 08:19:09;;;;;;;2.17;1.50;;;29.20;76.40;;;;;;4992480;28;20215;-72
2022/07/06 08:21:35;;;;;;;4.43;1.50;;;29.20;76.20;;;;;;4991818;28;20030;-72
2022/07/06 08:24:01;;;;;;;2.75;1.58;;;29.30;76.10;;;;;;4978509;28;20128;-72
2022/07/06 08:26:28;;;;;;;2.63;1.15;;;29.30;76.10;;;;;;4991750;28;20240;-72
2022/07/06 08:28:55;;;;;;;1.42;1.20;;;29.30;75.00;;;;;;4991987;28;20030;-71
2022/07/06 08:31:20;;;;;;;1.50;1.40;;;29.40;74.10;;;;;;4992744;28;20034;-71
2022/07/06 08:33:48;;;;;;;4.50;1.17;;;29.50;73.70;;;;;;4992089;28;20029;-71
2022/07/06 08:36:13;;;;;;;2.28;1.30;;;29.50;74.30;;;;;;4990940;28;20038;-71
2022/07/06 08:38:39;;;;;;;2.67;1.40;;;29.60;75.10;;;;;;4990399;28;20049;-73
2022/07/06 08:41:06;;;;;;;4.40;1.30;;;29.60;74.40;;;;;;4993360;28;20109;-70
2022/07/06 08:43:33;;;;;;;1.02;0.88;;;29.70;73.70;;;;;;4991035;28;20030;-71
2022/07/06 08:45:59;;;;;;;3.70;1.40;;;29.80;73.90;;;;;;4990714;28;20128;-71
2022/07/06 08:48:32;;;;;;;2.95;1.38;;;29.80;74.70;;;;;;4992421;28;20018;-71
2022/07/06 08:50:58;;;;;;;;;;;29.90;74.40;;;;;;4991851;28;20057;-70
2022/07/06 08:53:24;;;;;;;1.58;1.17;;;29.90;73.30;;;;;;4990891;28;20365;-71
2022/07/06 08:55:50;;;;;;;2.00;1.13;;;29.90;72.50;;;;;;4991148;28;20437;-72
2022/07/06 08:58:16;;;;;;;2.38;1.33;;;29.90;72.50;;;;;;4992327;28;20023;-72
2022/07/06 09:00:42;;;;;;;3.33;1.50;;;30.00;71.40;;;;;;4994010;28;20384;-72
2022/07/06 09:03:12;;;;;;;2.58;1.50;;;30.00;71.90;;;;;;4990865;28;20022;-72
2022/07/06 09:05:40;;;;;;;1.88;1.42;;;30.10;72.90;;;;;;4991421;28;20045;-72
2022/07/06 09:08:05;;;;;;;2.90;1.23;;;30.10;71.70;;;;;;4990917;28;20632;-73
2022/07/06 09:10:31;;;;;;;1.98;1.13;;;30.20;71.20;;;;;;4993322;28;20042;-73
2022/07/06 09:13:05;;;;;;;1.55;1.10;;;30.20;69.50;;;;;;4991248;28;20022;-73
2022/07/06 09:15:32;;;;;;;1.45;1.20;;;30.20;68.80;;;;;;4990172;28;20031;-74
2022/07/06 09:17:58;;;;;;;10.23;3.72;;;30.20;70.70;;;;;;4990816;28;20050;-75
2022/07/06 09:20:24;;;;;;;4.50;2.00;;;30.30;70.20;;;;;;4991083;28;20069;-75
2022/07/06 09:22:50;;;;;;;3.53;1.70;;;30.30;70.30;;;;;;4991873;28;20240;-74
2022/07/06 09:25:16;;;;;;;2.58;1.20;;;30.30;69.70;;;;;;4990797;28;20038;-73
2022/07/06 09:27:47;;;;;;;2.53;1.20;;;30.40;69.40;;;;;;4990717;28;20084;-74
2022/07/06 09:30:14;;;;;;;2.25;1.10;;;30.40;68.50;;;;;;4991219;28;20074;-75
2022/07/06 09:32:47;;;;;;;1.90;1.27;;;30.40;69.70;;;;;;4994321;28;20026;-73
2022/07/06 09:35:39;;;;;;;4.45;1.35;;;30.50;68.10;;;;;;4991096;28;20038;-73
2022/07/06 09:38:06;;;;;;;1.85;1.27;;;30.50;68.00;;;;;;4989345;28;20061;-73
2022/07/06 09:40:37;;;;;;;2.35;1.30;;;30.60;66.70;;;;;;4993167;28;20030;-71
2022/07/06 09:43:10;;;;;;;1.80;1.25;;;30.60;67.00;;;;;;4991350;28;20126;-72
2022/07/06 09:45:37;;;;;;;1.65;0.90;;;30.60;66.80;;;;;;4989778;28;20046;-73
2022/07/06 09:48:12;;;;;;;7.00;1.10;;;30.70;65.80;;;;;;4991752;28;20498;-71
2022/07/06 09:51:06;;;;;;;3.88;0.90;;;30.80;63.90;;;;;;4990720;28;20031;-71
2022/07/06 09:53:35;;;;;;;1.30;0.95;;;30.80;63.90;;;;;;4981957;28;20031;-72
2022/07/06 09:56:01;;;;;;;3.70;1.17;;;30.80;64.40;;;;;;4988702;28;20026;-71
2022/07/06 09:58:28;;;;;;;4.50;1.33;;;30.90;65.00;;;;;;4991597;28;20026;-71
2022/07/06 10:00:54;;;;;;;0.98;0.80;;;31.00;62.80;;;;;;5008367;28;20045;-71
2022/07/06 10:03:19;;;;;;;2.42;1.10;;;31.00;60.30;;;;;;4990331;28;20022;-71
2022/07/06 10:05:47;;;;;;;3.15;1.30;;;31.10;61.00;;;;;;4993792;28;20043;-72
2022/07/06 10:08:14;;;;;;;3.85;1.10;;;31.10;59.90;;;;;;4995317;28;20485;-72
2022/07/06 10:10:42;;;;;;;2.00;1.10;;;31.20;60.60;;;;;;4997256;28;20034;-72
2022/07/06 10:13:09;;;;;;;1.13;1.02;;;31.20;62.70;;;;;;4985777;28;20018;-73
2022/07/06 10:15:37;;;;;;;1.30;0.93;;;31.20;63.50;;;;;;4994436;28;20031;-72
2022/07/06 10:18:05;;;;;;;2.35;1.00;;;31.30;62.50;;;;;;4994955;28;20076;-73
2022/07/06 10:20:37;;;;;;;1.17;1.08;;;31.40;62.40;;;;;;4994537;28;20034;-72
2022/07/06 10:23:05;;;;;;;3.30;1.20;;;31.50;62.50;;;;;;4994523;28;20045;-71
2022/07/06 10:25:33;;;;;;;1.27;1.10;;;31.50;62.30;;;;;;4994117;28;20046;-71
2022/07/06 10:28:00;;;;;;;4.93;1.00;;;31.70;62.70;;;;;;4994942;28;20023;-72
2022/07/06 10:30:28;;;;;;;1.83;1.20;;;31.80;62.00;;;;;;4995765;28;20086;-72
2022/07/06 10:32:56;;;;;;;1.48;1.00;;;31.90;61.70;;;;;;4995826;28;20478;-73
2022/07/06 10:35:22;;;;;;;1.10;0.88;;;32.00;61.80;;;;;;4993875;28;20226;-72
2022/07/06 10:38:08;;;;;;;1.75;1.10;;;32.10;60.20;;;;;;4993584;28;20034;-72
2022/07/06 10:43:21;;;;;;;2.20;1.10;;;32.00;58.80;;;;;;4988300;28;20037;-72
2022/07/06 10:45:46;;;;;;;1.55;0.93;;;32.00;59.00;;;;;;4993812;28;20038;-73
2022/07/06 10:48:12;;;;;;;1.02;0.80;;;32.00;58.90;;;;;;4994791;28;20393;-79
2022/07/06 10:50:46;;;;;;;1.75;1.38;;;32.10;59.30;;;;;;4997522;28;20040;-78
2022/07/06 10:53:13;;;;;;;3.45;1.00;;;32.20;58.80;;;;;;4986098;28;20543;-73
2022/07/06 10:55:47;;;;;;;1.13;1.00;;;32.30;58.00;;;;;;4993649;28;20081;-74
2022/07/06 10:58:14;;;;;;;3.25;0.98;;;32.30;59.40;;;;;;4986593;28;20093;-76
2022/07/06 11:00:55;;;;;;;1.52;0.90;;;32.50;59.10;;;;;;4994940;28;20432;-77
2022/07/06 11:03:45;;;;;;;1.20;0.88;;;32.50;58.00;;;;;;4986532;28;20039;-76
2022/07/06 11:06:20;;;;;;;1.23;1.00;;;32.60;59.30;;;;;;4992102;28;20042;-78
2022/07/06 11:09:14;;;;;;;4.00;1.00;;;32.70;58.80;;;;;;4994078;28;20018;-78
2022/07/06 11:11:43;;;;;;;2.63;1.17;;;32.90;58.70;;;;;;4993294;28;20108;-77
2022/07/06 11:14:10;;;;;;;1.10;1.00;;;33.00;59.00;;;;;;4993880;28;20033;-75
2022/07/06 11:16:44;;;;;;;3.30;1.40;;;33.10;57.30;;;;;;4992469;28;20026;-75
2022/07/06 11:19:10;;;;;;;6.45;1.17;;;33.20;63.80;;;;;;4993786;28;20505;-75
2022/07/06 11:21:51;;;;;;;2.35;1.27;;;33.20;67.70;;;;;;4992375;28;20495;-75
2022/07/06 11:24:22;;;;;;;1.90;1.25;;;32.60;71.60;;;;;;4980953;28;20395;-77
2022/07/06 11:26:50;;;;;;;1.80;1.27;;;31.90;70.20;;;;;;4993565;28;20035;-75
2022/07/06 11:29:18;;;;;;;6.03;1.55;;;31.40;71.30;;;;;;4993611;28;20030;-75
2022/07/06 11:31:45;;;;;;;4.15;1.30;;;31.20;70.80;;;;;;4996170;28;20048;-75
2022/07/06 11:34:16;;;;;;;2.45;1.20;;;31.00;73.70;;;;;;4980097;28;20030;-75
2022/07/06 11:36:42;;;;;;;8.52;1.80;;;30.80;74.30;;;;;;4993603;28;20033;-75
2022/07/06 11:39:08;;;;;;;2.85;1.20;;;30.60;77.90;;;;;;4993388;28;20026;-77
2022/07/06 11:41:34;;;;;;;3.05;1.33;;;30.80;82.80;;;;;;4994750;28;20473;-77
2022/07/06 11:44:00;;;;;;;4.07;1.75;;;30.80;83.80;;;;;;4993304;28;20026;-76
2022/07/06 11:46:31;;;;;;;4.35;1.40;;;30.70;90.20;;;;;;4991993;28;20393;-78
2022/07/06 11:49:03;;;;;;;3.80;1.52;;;30.80;92.40;;;;;;4993718;28;20015;-87
2022/07/06 11:51:30;;;;;;;3.73;1.43;;;31.00;92.90;;;;;;4988356;28;20026;-83
2022/07/06 11:53:59;;;;;;;3.45;1.63;;;31.20;90.60;;;;;;4993178;28;20349;-77
2022/07/06 11:56:27;;;;;;;5.47;1.70;;;31.20;85.90;;;;;;4988919;28;20025;-79
2022/07/06 11:58:57;;;;;;;2.70;1.40;;;31.40;86.70;;;;;;4993136;28;20026;-75
2022/07/06 12:01:24;;;;;;;2.97;1.48;;;31.50;78.20;;;;;;4995641;28;20053;-82
2022/07/06 12:03:51;;;;;;;3.45;1.42;;;31.60;80.70;;;;;;4992876;28;20073;-77
2022/07/06 12:06:24;;;;;;;2.85;1.25;;;31.30;77.80;;;;;;4991622;28;20034;-70
2022/07/06 12:08:52;;;;;;;3.15;1.27;;;31.50;74.70;;;;;;4992915;28;20026;-72
2022/07/06 12:11:30;;;;;;;2.45;1.10;;;32.60;70.60;;;;;;4991061;28;20022;-70
2022/07/06 12:13:59;;;;;;;3.45;1.33;;;33.80;67.50;;;;;;4992936;28;20616;-71
2022/07/06 12:16:35;;;;;;;5.25;1.40;;;35.10;65.30;;;;;;4988400;28;20061;-73
2022/07/06 12:19:04;;;;;;;3.88;1.30;;;34.90;65.80;;;;;;4991335;28;20022;-70
2022/07/06 12:21:30;;;;;;;2.88;1.15;;;34.80;65.10;;;;;;4992427;28;20034;-71
2022/07/06 12:23:57;;;;;;;2.20;1.05;;;35.40;63.60;;;;;;4991340;28;20452;-70
2022/07/06 12:26:25;;;;;;;4.45;1.13;;;35.90;62.30;;;;;;4992236;28;20049;-69
2022/07/06 12:29:10;;;;;;;4.03;1.38;;;36.50;61.70;;;;;;4991083;28;20030;-79
2022/07/06 12:31:48;;;;;;;6.25;1.50;;;37.30;60.90;;;;;;4992426;28;20018;-74
2022/07/06 12:34:19;;;;;;;1.42;1.33;;;37.70;61.50;;;;;;4979313;28;20022;-71
2022/07/06 12:36:51;;;;;;;3.47;1.30;;;37.80;58.80;;;;;;4992345;28;20026;-68
2022/07/06 12:39:20;;;;;;;4.07;1.55;;;36.60;60.60;;;;;;4979268;28;20026;-70
2022/07/06 12:41:56;;;;;;;2.08;1.42;;;37.00;63.00;;;;;;4994925;28;20041;-71
2022/07/06 12:44:25;;;;;;;4.03;1.33;;;37.70;60.40;;;;;;4978882;28;20394;-71
2022/07/06 12:47:06;;;;;;;2.70;1.20;;;38.20;59.70;;;;;;4992212;28;20053;-70
2022/07/06 12:49:33;;;;;;;5.38;1.20;;;37.80;59.90;;;;;;4991881;28;20030;-70
2022/07/06 12:52:12;;;;;;;3.03;1.50;;;37.00;62.60;;;;;;4992148;28;20113;-70
2022/07/06 12:54:49;;;;;;;1.52;1.40;;;36.30;61.60;;;;;;4990817;28;20061;-70